createdAt,value
2023-05-14T00:01:56.798Z,14.5
2023-05-14T00:04:25.053Z,14.7
2023-05-14T00:09:21.575Z,14.7
2023-05-14T00:11:49.829Z,14.7
2023-05-14T00:14:18.089Z,14.5
2023-05-14T00:16:46.342Z,14.4
2023-05-14T00:19:14.594Z,14.5
2023-05-14T00:21:42.855Z,14.4
2023-05-14T00:22:57.587Z,14.5
2023-05-14T00:24:11.130Z,14.6
2023-05-14T00:26:39.393Z,14.7
2023-05-14T00:29:07.641Z,14.3
2023-05-14T00:31:35.902Z,14.2
2023-05-14T00:34:04.154Z,14.1
2023-05-14T00:36:32.411Z,14.1
2023-05-14T00:41:28.933Z,14
2023-05-14T00:43:57.183Z,14.1
2023-05-14T00:46:25.443Z,14.2
2023-05-14T00:47:40.171Z,14
2023-05-14T00:48:53.713Z,14.1
2023-05-14T00:51:21.970Z,14.1
2023-05-14T00:53:50.226Z,13.9
2023-05-14T00:56:18.491Z,14
2023-05-14T00:58:46.739Z,13.7
2023-05-14T01:01:14.998Z,13.6
2023-05-14T01:03:43.262Z,13.7
2023-05-14T01:06:11.514Z,13.6
2023-05-14T01:08:39.769Z,13.8
2023-05-14T01:12:22.761Z,13.6
2023-05-14T01:13:36.300Z,13.4
2023-05-14T01:16:04.563Z,13.4
2023-05-14T01:18:32.817Z,13.3
2023-05-14T01:21:01.074Z,13.4
2023-05-14T01:23:29.326Z,13.3
2023-05-14T01:25:57.589Z,13.1
2023-05-14T01:28:25.845Z,13.2
2023-05-14T01:30:54.101Z,13
2023-05-14T01:33:22.351Z,13
2023-05-14T01:35:50.611Z,13.1
2023-05-14T01:37:05.339Z,13
2023-05-14T01:38:18.891Z,12.9
2023-05-14T01:43:15.399Z,12.8
2023-05-14T01:45:43.660Z,12.8
2023-05-14T01:48:11.915Z,12.7
2023-05-14T01:50:40.167Z,12.9
2023-05-14T01:53:08.427Z,12.7
2023-05-14T01:55:36.683Z,12.9
2023-05-14T01:58:04.936Z,12.7
2023-05-14T02:00:33.192Z,12.9
2023-05-14T02:01:47.930Z,13.2
2023-05-14T02:03:01.468Z,13.3
2023-05-14T02:05:29.731Z,13.3
2023-05-14T02:07:57.989Z,13.1
2023-05-14T02:10:26.237Z,13
2023-05-14T02:15:22.752Z,12.7
2023-05-14T02:17:51.011Z,12.8
2023-05-14T02:20:19.269Z,12.9
2023-05-14T02:22:47.522Z,12.9
2023-05-14T02:25:15.779Z,13
2023-05-14T02:26:30.509Z,12.9
2023-05-14T02:27:44.060Z,12.9
2023-05-14T02:30:12.312Z,12.9
2023-05-14T02:32:40.568Z,12.9
2023-05-14T02:35:08.827Z,12.9
2023-05-14T02:37:37.085Z,12.9
2023-05-14T02:40:05.340Z,12.8
2023-05-14T02:42:33.592Z,13
2023-05-14T02:47:30.110Z,12.8
2023-05-14T02:49:58.371Z,12.9
2023-05-14T02:51:13.099Z,13.1
2023-05-14T02:52:26.639Z,13
2023-05-14T02:54:54.896Z,13
2023-05-14T02:57:23.154Z,12.9
2023-05-14T02:59:51.410Z,12.9
2023-05-14T03:02:19.668Z,12.9
2023-05-14T03:04:47.928Z,12.9
2023-05-14T03:07:16.183Z,13.1
2023-05-14T03:09:44.443Z,13.2
2023-05-14T03:12:12.700Z,12.7
2023-05-14T03:14:40.955Z,12.8
2023-05-14T03:17:09.210Z,12.7
2023-05-14T03:19:37.473Z,12.7
2023-05-14T03:22:05.732Z,12.8
2023-05-14T03:24:33.986Z,12.8
2023-05-14T03:27:02.243Z,13
2023-05-14T03:29:30.502Z,13.1
2023-05-14T03:31:58.752Z,13.3
2023-05-14T03:34:27.014Z,13.3
2023-05-14T03:36:55.268Z,13.2
2023-05-14T03:39:23.526Z,13
2023-05-14T03:40:38.275Z,12.8
2023-05-14T03:41:51.820Z,12.9
2023-05-14T03:44:20.076Z,13
2023-05-14T03:49:16.588Z,13
2023-05-14T03:51:44.853Z,12.5
2023-05-14T03:54:13.101Z,12.6
2023-05-14T03:56:41.363Z,12.7
2023-05-14T03:59:09.623Z,12.9
2023-05-14T04:01:37.873Z,12.8
2023-05-14T04:04:06.130Z,13
2023-05-14T04:05:20.863Z,13.1
2023-05-14T04:06:34.413Z,13
2023-05-14T04:09:02.663Z,12.9
2023-05-14T04:11:30.921Z,12.7
2023-05-14T04:13:59.185Z,12.9
2023-05-14T04:16:27.439Z,13
2023-05-14T04:21:23.954Z,13.1
2023-05-14T04:23:52.206Z,13.2
2023-05-14T04:26:20.462Z,13.3
2023-05-14T04:28:48.721Z,13.5
2023-05-14T04:30:03.451Z,13.8
2023-05-14T04:31:16.995Z,13.7
2023-05-14T04:33:45.254Z,13.8
2023-05-14T04:36:13.516Z,13.8
2023-05-14T04:38:41.774Z,13.8
2023-05-14T04:41:10.023Z,13.7
2023-05-14T04:43:38.286Z,14
2023-05-14T04:46:06.534Z,14
2023-05-14T04:48:34.794Z,14.1
2023-05-14T04:53:31.304Z,14.1
2023-05-14T04:54:46.035Z,14.2
2023-05-14T04:55:59.587Z,14.1
2023-05-14T04:58:27.839Z,13.8
2023-05-14T05:00:56.097Z,13.8
2023-05-14T05:03:24.349Z,13.8
2023-05-14T05:05:52.609Z,13.9
2023-05-14T05:08:20.869Z,13.9
2023-05-14T05:10:49.124Z,13.7
2023-05-14T05:13:17.379Z,13.7
2023-05-14T05:15:45.635Z,13.8
2023-05-14T05:18:13.892Z,13.5
2023-05-14T05:19:28.624Z,13.6
2023-05-14T05:23:10.658Z,13.5
2023-05-14T05:25:38.910Z,13.6
2023-05-14T05:28:07.173Z,13.9
2023-05-14T05:30:35.428Z,13.9
2023-05-14T05:33:03.686Z,14
2023-05-14T05:35:31.938Z,14.1
2023-05-14T05:38:00.192Z,14.3
2023-05-14T05:40:28.447Z,14.5
2023-05-14T05:42:56.708Z,14.8
2023-05-14T05:44:11.441Z,14.9
2023-05-14T05:45:24.985Z,15
2023-05-14T05:47:53.237Z,15
2023-05-14T05:50:21.492Z,15.2
2023-05-14T05:55:18.012Z,15.3
2023-05-14T05:57:46.263Z,14.8
2023-05-14T06:00:14.519Z,14.9
2023-05-14T06:02:42.777Z,15.2
2023-05-14T06:05:11.034Z,15.3
2023-05-14T06:07:39.291Z,15.5
2023-05-14T06:08:54.019Z,15.5
2023-05-14T06:10:07.567Z,15.4
2023-05-14T06:12:35.823Z,15.4
2023-05-14T06:15:04.085Z,15.3
2023-05-14T06:17:32.335Z,15.5
2023-05-14T06:20:00.597Z,15.8
2023-05-14T06:22:28.854Z,15.9
2023-05-14T06:27:25.363Z,16.1
2023-05-14T06:29:53.624Z,16.1
2023-05-14T06:32:21.879Z,16.3
2023-05-14T06:33:36.611Z,16.6
2023-05-14T06:34:50.155Z,16.5
2023-05-14T06:37:18.413Z,16.5
2023-05-14T06:39:46.424Z,16.5
2023-05-14T06:42:14.672Z,16.9
2023-05-14T06:44:42.931Z,16.8
2023-05-14T06:47:11.185Z,16.9
2023-05-14T06:49:39.442Z,16.9
2023-05-14T06:52:07.700Z,17.1
2023-05-14T06:54:35.960Z,17.3
2023-05-14T06:58:18.943Z,17.5
2023-05-14T06:59:32.488Z,17.7
2023-05-14T07:02:00.747Z,17.6
2023-05-14T07:04:29.005Z,17.6
2023-05-14T07:06:57.257Z,17.9
2023-05-14T07:09:25.515Z,17.9
2023-05-14T07:11:53.774Z,18
2023-05-14T07:14:22.029Z,17.8
2023-05-14T07:16:50.288Z,17.8
2023-05-14T07:19:18.541Z,17.9
2023-05-14T07:21:46.800Z,17.9
2023-05-14T07:23:01.529Z,17.9
2023-05-14T07:24:15.079Z,17.7
2023-05-14T07:29:11.585Z,17.8
2023-05-14T07:31:39.840Z,18.2
2023-05-14T07:34:08.100Z,18.6
2023-05-14T07:36:36.356Z,18.2
2023-05-14T07:39:04.570Z,18.5
2023-05-14T07:41:32.832Z,18.7
2023-05-14T07:44:01.092Z,19
2023-05-14T07:46:29.346Z,19.3
2023-05-14T07:47:44.074Z,19.5
2023-05-14T07:48:57.625Z,19.7
2023-05-14T07:51:25.879Z,19.8
2023-05-14T07:53:54.137Z,19.4
2023-05-14T07:56:22.395Z,19.6
2023-05-14T08:01:18.903Z,19.7
2023-05-14T08:03:47.159Z,20.2
2023-05-14T08:06:15.414Z,20.2
2023-05-14T08:08:43.672Z,20.2
2023-05-14T08:11:11.932Z,20.3
2023-05-14T08:12:26.658Z,20.2
2023-05-14T08:13:40.210Z,20.3
2023-05-14T08:16:08.459Z,20.3
2023-05-14T08:18:36.721Z,20.4
2023-05-14T08:21:04.979Z,20.4
2023-05-14T08:23:33.232Z,20.7
2023-05-14T08:26:01.484Z,20.9
2023-05-14T08:28:29.746Z,20.6
2023-05-14T08:33:26.263Z,20.3
2023-05-14T08:35:54.526Z,20.9
2023-05-14T08:37:09.250Z,20.8
2023-05-14T08:38:22.790Z,20.7
2023-05-14T08:40:51.046Z,20.9
2023-05-14T08:43:19.302Z,21.1
2023-05-14T08:45:47.559Z,21.5
2023-05-14T08:48:15.817Z,21.6
2023-05-14T08:50:44.070Z,21.4
2023-05-14T08:53:12.326Z,21.5
2023-05-14T08:55:40.583Z,21.7
2023-05-14T08:58:08.842Z,21.6
2023-05-14T09:00:37.099Z,21.5
2023-05-14T09:03:05.353Z,21.6
2023-05-14T09:05:33.611Z,21.8
2023-05-14T09:08:01.870Z,21.7
2023-05-14T09:10:30.131Z,21.7
2023-05-14T09:12:58.382Z,22
2023-05-14T09:15:26.640Z,21.8
2023-05-14T09:17:54.900Z,21.9
2023-05-14T09:20:23.152Z,21.9
2023-05-14T09:22:51.416Z,22
2023-05-14T09:25:19.665Z,22.1
2023-05-14T09:26:34.421Z,22.3
2023-05-14T09:27:47.966Z,22.3
2023-05-14T09:30:16.223Z,22.2
2023-05-14T09:35:12.733Z,22.3
2023-05-14T09:37:40.993Z,22.3
2023-05-14T09:40:09.240Z,22.7
2023-05-14T09:42:37.502Z,22.8
2023-05-14T09:45:05.758Z,22.8
2023-05-14T09:47:34.017Z,22.7
2023-05-14T09:50:02.266Z,22
2023-05-14T09:51:16.996Z,22.2
2023-05-14T09:52:30.550Z,22.3
2023-05-14T09:54:58.806Z,22.1
2023-05-14T09:57:27.056Z,22.1
2023-05-14T09:59:55.321Z,21.9
2023-05-14T10:02:23.572Z,21.1
2023-05-14T10:07:20.083Z,21.4
2023-05-14T10:09:48.345Z,21.3
2023-05-14T10:12:16.599Z,21.3
2023-05-14T10:14:44.859Z,21.5
2023-05-14T10:15:59.582Z,21.4
2023-05-14T10:17:13.132Z,21.1
2023-05-14T10:19:41.392Z,21.3
2023-05-14T10:22:09.641Z,21.6
2023-05-14T10:24:37.901Z,21.3
2023-05-14T10:27:06.153Z,21.5
2023-05-14T10:29:34.418Z,21.6
2023-05-14T10:32:02.670Z,21.1
2023-05-14T10:34:30.922Z,21.3
2023-05-14T10:39:27.433Z,21.8
2023-05-14T10:40:42.167Z,22.1
2023-05-14T10:41:55.716Z,22
2023-05-14T10:44:23.967Z,22
2023-05-14T10:46:52.226Z,21.8
2023-05-14T10:49:20.485Z,21.6
2023-05-14T10:51:48.738Z,21.6
2023-05-14T10:54:16.999Z,21.9
2023-05-14T10:56:45.249Z,22.1
2023-05-14T10:59:13.509Z,21.8
2023-05-14T11:01:41.766Z,21.8
2023-05-14T11:04:10.020Z,22
2023-05-14T11:05:24.750Z,21.8
2023-05-14T11:09:06.789Z,21.8
2023-05-14T11:11:35.045Z,21.9
2023-05-14T11:14:03.300Z,21.7
2023-05-14T11:16:31.557Z,21.4
2023-05-14T11:18:59.815Z,21.5
2023-05-14T11:21:28.069Z,21.8
2023-05-14T11:23:56.320Z,21.8
2023-05-14T11:26:24.579Z,21.8
2023-05-14T11:28:52.841Z,21.6
2023-05-14T11:30:07.563Z,21.6
2023-05-14T11:31:21.119Z,21.6
2023-05-14T11:33:49.375Z,21.5
2023-05-14T11:36:17.631Z,21.7
2023-05-14T11:41:14.142Z,21.5
2023-05-14T11:43:42.397Z,21.9
2023-05-14T11:46:10.654Z,22.1
2023-05-14T11:48:38.910Z,22.2
2023-05-14T11:51:07.166Z,22
2023-05-14T11:53:35.421Z,21.8
2023-05-14T11:54:50.157Z,21.9
2023-05-14T11:56:03.706Z,22
2023-05-14T11:58:31.956Z,22.1
2023-05-14T12:01:00.218Z,22
2023-05-14T12:03:28.470Z,22.1
2023-05-14T12:05:56.726Z,22.2
2023-05-14T12:08:24.988Z,22.5
2023-05-14T12:13:21.494Z,22.8
2023-05-14T12:15:49.756Z,23.4
2023-05-14T12:18:18.010Z,23.3
2023-05-14T12:19:32.738Z,23
2023-05-14T12:20:46.282Z,23
2023-05-14T12:23:14.543Z,23
2023-05-14T12:25:42.800Z,22.8
2023-05-14T12:28:11.053Z,22.3
2023-05-14T12:30:39.309Z,22.3
2023-05-14T12:33:07.568Z,22
2023-05-14T12:35:35.827Z,22.5
2023-05-14T12:38:04.082Z,23
2023-05-14T12:40:32.342Z,23.2
2023-05-14T12:44:15.320Z,23.5
2023-05-14T12:45:28.879Z,23.5
2023-05-14T12:47:57.132Z,23.6
2023-05-14T12:50:25.387Z,23
2023-05-14T12:52:53.641Z,22.9
2023-05-14T12:55:21.901Z,22.5
2023-05-14T12:57:50.156Z,22.1
2023-05-14T13:00:18.408Z,21.8
2023-05-14T13:02:46.671Z,21.9
2023-05-14T13:05:14.928Z,22.1
2023-05-14T13:07:43.180Z,22.2
2023-05-14T13:08:57.908Z,21.6
2023-05-14T13:10:11.461Z,21.5
2023-05-14T13:15:07.966Z,21.6
2023-05-14T13:17:36.230Z,21.6
2023-05-14T13:20:04.484Z,21.2
2023-05-14T13:22:32.743Z,21.3
2023-05-14T13:25:00.992Z,21.4
2023-05-14T13:27:29.252Z,21.2
2023-05-14T13:29:57.514Z,21.2
2023-05-14T13:32:25.766Z,21.4
2023-05-14T13:33:40.500Z,21.7
2023-05-14T13:34:54.044Z,21.5
2023-05-14T13:37:22.300Z,21.6
2023-05-14T13:39:50.554Z,21.9
2023-05-14T13:42:18.813Z,21.9
2023-05-14T13:47:15.323Z,22
2023-05-14T13:49:43.582Z,21.9
2023-05-14T13:52:11.832Z,21.4
2023-05-14T13:54:40.091Z,21.6
2023-05-14T13:57:08.353Z,21.9
2023-05-14T13:58:23.075Z,22.1
2023-05-14T13:59:36.631Z,21.9
2023-05-14T14:02:04.880Z,21.9
2023-05-14T14:04:33.138Z,21.9
2023-05-14T14:07:01.398Z,21.8
2023-05-14T14:09:29.649Z,21.7
2023-05-14T14:11:57.907Z,21.8
2023-05-14T14:14:26.166Z,22.1
2023-05-14T14:19:22.684Z,22
2023-05-14T14:21:50.940Z,22
2023-05-14T14:23:05.668Z,22.1
2023-05-14T14:24:19.216Z,22
2023-05-14T14:26:47.467Z,22
2023-05-14T14:29:15.723Z,22.1
2023-05-14T14:31:43.987Z,21.9
2023-05-14T14:34:12.242Z,21.7
2023-05-14T14:36:40.492Z,21.3
2023-05-14T14:39:08.749Z,21.3
2023-05-14T14:41:37.028Z,21.3
2023-05-14T14:44:05.263Z,21.4
2023-05-14T14:46:33.524Z,21.7
2023-05-14T14:49:01.785Z,21.6
2023-05-14T14:51:30.036Z,21.6
2023-05-14T14:53:58.299Z,22
2023-05-14T14:56:26.548Z,22
2023-05-14T14:58:54.805Z,21.7
2023-05-14T15:01:23.062Z,22
2023-05-14T15:03:51.324Z,21.7
2023-05-14T15:06:19.574Z,21.5
2023-05-14T15:08:47.831Z,21.6
2023-05-14T15:11:16.092Z,21.6
2023-05-14T15:12:30.836Z,21.3
2023-05-14T15:13:44.390Z,21.3
2023-05-14T15:16:12.641Z,21.2
2023-05-14T15:21:09.154Z,21.1
2023-05-14T15:23:37.418Z,20.8
2023-05-14T15:26:05.666Z,20.9
2023-05-14T15:28:33.930Z,20.7
2023-05-14T15:31:02.182Z,20.4
2023-05-14T15:33:30.440Z,20.2
2023-05-14T15:35:58.695Z,20.4
2023-05-14T15:37:13.431Z,20.4
2023-05-14T15:38:26.977Z,20.3
2023-05-14T15:40:55.231Z,20.3
2023-05-14T15:43:23.485Z,20.6
2023-05-14T15:45:51.741Z,20.9
2023-05-14T15:48:20.001Z,21
2023-05-14T15:53:16.513Z,20.9
2023-05-14T15:55:44.771Z,21.2
2023-05-14T15:58:13.025Z,21
2023-05-14T16:00:41.283Z,21
2023-05-14T16:01:56.012Z,21
2023-05-14T16:03:09.563Z,20.9
2023-05-14T16:05:37.829Z,20.9
2023-05-14T16:08:06.074Z,21.1
2023-05-14T16:10:34.333Z,21.2
2023-05-14T16:13:02.588Z,21.2
2023-05-14T16:15:30.848Z,21.3
2023-05-14T16:17:59.105Z,21.5
2023-05-14T16:20:27.358Z,21.4
2023-05-14T16:25:23.872Z,21.5
2023-05-14T16:26:38.602Z,21.4
2023-05-14T16:27:52.150Z,21.4
2023-05-14T16:30:20.408Z,21.3
2023-05-14T16:32:48.662Z,21.1
2023-05-14T16:35:16.919Z,20.8
2023-05-14T16:37:45.181Z,20.8
2023-05-14T16:40:13.439Z,20.8
2023-05-14T16:42:41.695Z,20.9
2023-05-14T16:45:09.947Z,21
2023-05-14T16:47:38.203Z,20.9
2023-05-14T16:50:06.463Z,20.6
2023-05-14T16:51:21.193Z,20.4
2023-05-14T16:55:03.230Z,20.4
2023-05-14T16:57:31.490Z,20.4
2023-05-14T16:59:59.740Z,20.5
2023-05-14T17:02:27.998Z,20.5
2023-05-14T17:04:56.260Z,20.4
2023-05-14T17:07:24.515Z,20.4
2023-05-14T17:09:52.772Z,20.4
2023-05-14T17:12:21.032Z,20.6
2023-05-14T17:14:49.284Z,20.6
2023-05-14T17:16:04.014Z,20.7
2023-05-14T17:17:17.562Z,20.2
2023-05-14T17:19:45.814Z,20.2
2023-05-14T17:22:14.078Z,20.2
2023-05-14T17:27:10.591Z,20.4
2023-05-14T17:29:38.841Z,20.3
2023-05-14T17:32:07.100Z,20.4
2023-05-14T17:34:35.356Z,20.6
2023-05-14T17:37:03.615Z,20.2
2023-05-14T17:39:31.867Z,19.8
2023-05-14T17:40:46.598Z,19.8
2023-05-14T17:42:00.148Z,19.9
2023-05-14T17:44:28.398Z,19.8
2023-05-14T17:46:56.662Z,19.9
2023-05-14T17:49:24.914Z,19.8
2023-05-14T17:51:53.179Z,19.8
2023-05-14T17:54:21.423Z,19.7
2023-05-14T17:59:17.937Z,19.7
2023-05-14T18:01:46.193Z,19.4
2023-05-14T18:04:14.453Z,19.3
2023-05-14T18:05:29.181Z,19
2023-05-14T18:06:42.729Z,19.1
2023-05-14T18:09:10.991Z,19
2023-05-14T18:11:39.239Z,18.8
2023-05-14T18:14:07.504Z,18.7
2023-05-14T18:16:35.761Z,18.8
2023-05-14T18:19:04.012Z,18.7
2023-05-14T18:21:32.266Z,18.7
2023-05-14T18:24:00.528Z,18.7
2023-05-14T18:26:28.783Z,19
2023-05-14T18:30:11.770Z,18.5
2023-05-14T18:31:25.321Z,18
2023-05-14T18:33:53.569Z,18
2023-05-14T18:36:21.825Z,17.9
2023-05-14T18:38:50.091Z,18
2023-05-14T18:41:18.346Z,17.9
2023-05-14T18:43:46.602Z,18
2023-05-14T18:46:14.856Z,18.1
2023-05-14T18:48:43.113Z,18.2
2023-05-14T18:51:11.365Z,18.3
2023-05-14T18:53:39.624Z,18.3
2023-05-14T18:54:54.353Z,18.5
2023-05-14T18:56:07.905Z,18.5
2023-05-14T19:01:04.415Z,18.6
2023-05-14T19:03:32.677Z,18.6
2023-05-14T19:06:00.925Z,18.4
2023-05-14T19:08:29.184Z,18.4
2023-05-14T19:10:57.444Z,18.3
2023-05-14T19:13:25.711Z,18.5
2023-05-14T19:15:53.953Z,18.5
2023-05-14T19:18:22.218Z,18.4
2023-05-14T19:19:36.943Z,18.4
2023-05-14T19:20:50.495Z,18.2
2023-05-14T19:23:18.751Z,18
2023-05-14T19:25:47.005Z,17.9
2023-05-14T19:28:15.267Z,17.8
2023-05-14T19:33:11.775Z,17.7
2023-05-14T19:35:40.028Z,17.6
2023-05-14T19:38:08.291Z,17.6
2023-05-14T19:40:36.537Z,17.8
2023-05-14T19:43:04.799Z,17.5
2023-05-14T19:44:19.522Z,17.5
2023-05-14T19:45:33.075Z,17.5
2023-05-14T19:48:01.331Z,17.5
2023-05-14T19:50:29.581Z,17.6
2023-05-14T19:52:57.840Z,17.4
2023-05-14T19:55:26.103Z,17.4
2023-05-14T19:57:54.357Z,17.5
2023-05-14T20:00:22.612Z,17.1
2023-05-14T20:05:19.122Z,17.1
2023-05-14T20:07:47.383Z,16.7
2023-05-14T20:09:02.113Z,17
2023-05-14T20:10:15.654Z,16.8
2023-05-14T20:12:43.913Z,16.7
2023-05-14T20:15:12.166Z,16.9
2023-05-14T20:17:40.423Z,16.9
2023-05-14T20:20:08.678Z,16.8
2023-05-14T20:22:36.937Z,16.9
2023-05-14T20:25:05.192Z,16.7
2023-05-14T20:27:33.452Z,16.6
2023-05-14T20:30:01.706Z,16.6
2023-05-14T20:32:29.966Z,16.7
2023-05-14T20:34:58.221Z,16.7
2023-05-14T20:37:26.481Z,16.5
2023-05-14T20:39:54.741Z,16.5
2023-05-14T20:42:22.997Z,16.5
2023-05-14T20:44:51.246Z,16.5
2023-05-14T20:47:19.511Z,16.5
2023-05-14T20:49:47.763Z,16.6
2023-05-14T20:52:16.016Z,16.5
2023-05-14T20:54:44.271Z,16.3
2023-05-14T20:57:12.529Z,16.2
2023-05-14T20:58:27.279Z,16.2
2023-05-14T20:59:40.827Z,16.2
2023-05-14T21:02:09.084Z,16.2
2023-05-14T21:07:05.601Z,16.2
2023-05-14T21:09:33.848Z,16.2
2023-05-14T21:12:02.108Z,16.2
2023-05-14T21:14:30.368Z,16
2023-05-14T21:16:58.624Z,16
2023-05-14T21:19:26.875Z,16.1
2023-05-14T21:21:55.139Z,16.3
2023-05-14T21:23:09.869Z,16.4
2023-05-14T21:24:23.410Z,16.4
2023-05-14T21:26:51.668Z,16.5
2023-05-14T21:29:19.924Z,16.4
2023-05-14T21:31:48.181Z,16.5
2023-05-14T21:34:16.437Z,16.3
2023-05-14T21:39:12.949Z,16.3
2023-05-14T21:41:41.213Z,16.3
2023-05-14T21:46:37.726Z,16.2
2023-05-14T21:47:52.457Z,16.2
2023-05-14T21:49:05.997Z,16.2
2023-05-14T21:51:34.260Z,16
2023-05-14T21:54:02.512Z,15.9
2023-05-14T21:56:30.770Z,16
2023-05-14T21:58:59.027Z,15.7
2023-05-14T22:01:27.289Z,15.4
2023-05-14T22:03:55.548Z,14.8
2023-05-14T22:06:23.796Z,14.6
2023-05-14T22:11:20.314Z,14.3
2023-05-14T22:12:35.046Z,14.1
2023-05-14T22:13:48.588Z,14.2
2023-05-14T22:16:16.851Z,14.3
2023-05-14T22:18:45.109Z,14.4
2023-05-14T22:21:13.359Z,14.3
2023-05-14T22:23:41.621Z,14.4
2023-05-14T22:26:09.871Z,14.5
2023-05-14T22:28:38.134Z,14.8
2023-05-14T22:31:06.401Z,14.8
2023-05-14T22:33:34.648Z,14.7
2023-05-14T22:36:02.902Z,14.7
2023-05-14T22:37:17.634Z,14.6
2023-05-14T22:40:59.669Z,14.6
2023-05-14T22:43:27.923Z,14.6
2023-05-14T22:45:56.186Z,14.6
2023-05-14T22:48:24.438Z,14.7
2023-05-14T22:50:52.701Z,14.8
2023-05-14T22:53:20.951Z,14.9
2023-05-14T22:55:49.210Z,14.9
2023-05-14T22:58:17.461Z,14.9
2023-05-14T23:00:45.725Z,14.9
2023-05-14T23:02:00.452Z,14.8
2023-05-14T23:03:13.993Z,14.7
2023-05-14T23:05:42.257Z,14.7
2023-05-14T23:08:10.515Z,14.7
2023-05-14T23:13:07.025Z,14.5
2023-05-14T23:15:35.281Z,14.5
2023-05-14T23:18:03.542Z,14.6
2023-05-14T23:20:31.791Z,14.6
2023-05-14T23:23:00.049Z,14.6
2023-05-14T23:25:28.302Z,14.6
2023-05-14T23:26:43.038Z,14.5
2023-05-14T23:27:56.587Z,14.5
2023-05-14T23:30:24.834Z,14.5
2023-05-14T23:32:53.096Z,14.4
2023-05-14T23:35:21.347Z,14.4
2023-05-14T23:37:49.607Z,14.3
2023-05-14T23:40:17.865Z,14.2
2023-05-14T23:45:14.373Z,14.1
2023-05-14T23:47:42.633Z,13.7
2023-05-14T23:50:10.891Z,13.7
2023-05-14T23:51:25.622Z,13.8
2023-05-14T23:52:39.170Z,13.9
2023-05-14T23:55:07.420Z,13.9
2023-05-14T23:57:35.674Z,14.1
